マガダン の空港の天気 - METARとTAF

マガダン・ソコル空港 ( UHMM / GDX ) - ロシア マガダン
飛行場実況気象(Metar)
観測時間02/28 07:00 +11 (02/27 20:00 UTC)
風向・風速東南東 2m/s
視程10km以上
天気現象
なし
気温-21℃
湿度84%
気圧1021hPa
METARUHMM 272000Z 11002MPS 9999 NSC M21/M23 Q1021 RMK QFE751
過去の天気等 Google飛行場航空写真 Wunderground天気予報

過去48時間のMETAR

飛行場予報(TAF)
発表時間: 2/28 06:50 +11 (2/27 19:50 UTC)
予報対象時間: 28日8時 +11 ~ 1日14時 +11
風向・風速北東 3m/s 瞬間風速 8m/s
視程5,000m
天気現象弱いしゅう雪
全天の8割程度の積乱雲 雲底高度 460m
全天を覆う雲 雲底高度 2,130m
28日10時 +11 ~ 28日17時 +11 に一時的に
視程2,100m
天気現象弱いしゅう雪
全天の8割程度の積乱雲 雲底高度 370m
全天を覆う雲 雲底高度 2,130m
28日17時 +11 から
風向・風速東北東 8m/s 瞬間風速 13m/s
視程2,100m
天気現象弱いしゅう雪
全天の8割程度の積乱雲 雲底高度 370m
全天を覆う雲 雲底高度 2,130m
28日17時 +11 ~ 1日14時 +11 に一時的に
視程800m
天気現象強いしゅう雪 高い地吹雪
全天を覆う雲 鉛直視程 60m
TAF UHMM 271950Z 2721/0103 05003G08MPS 5000 -SHSN BKN015CB OVC070
TEMPO 2723/2806 2100 -SHSN BKN012CB OVC070
FM280600 07008G13MPS 2100 -SHSN BKN012CB OVC070
TEMPO 2806/0103 0800 +SHSN BLSN VV002